Terminal Aerodrome Forecast
Issued by NWS Grand Forks, ND

Home | Current Version | Previous Version | Graphics & Text | Print | Product List | Glossary On
Versions: 1 2 3 4 5 6 7 8 9 10 11 12 13 14 15 16 17
000
FTUS43 KFGF 241100
TAFGFK
TAF
KGFK 241133Z 2412/2512 VRB06KT P6SM BKN080
     FM241600 01012KT P6SM SCT015
      TEMPO 2416/2418 2SM BR BKN015
     FM241800 02012KT 3SM BR OVC025
     FM250000 02012KT 4SM BR OVC012=

USA.gov is the U.S. government's official web portal to all federal, state and local government web resources and services.